sensor_id;sensor_type;location;lat;lon;timestamp;pressure;altitude;pressure_sealevel;temperature;humidity
27304;BME280;14791;52.392;13.092;2023-02-03T00:00:17;101734.69;;;10.36;50.65
27304;BME280;14791;52.392;13.092;2023-02-03T00:02:46;101729.83;;;10.36;50.66
27304;BME280;14791;52.392;13.092;2023-02-03T00:05:15;101728.02;;;10.36;50.61
27304;BME280;14791;52.392;13.092;2023-02-03T00:07:44;101723.23;;;10.34;50.63
27304;BME280;14791;52.392;13.092;2023-02-03T00:10:13;101721.16;;;10.31;50.65
27304;BME280;14791;52.392;13.092;2023-02-03T00:12:42;101711.51;;;10.27;50.75
27304;BME280;14791;52.392;13.092;2023-02-03T00:15:11;101706.38;;;10.22;50.76
27304;BME280;14791;52.392;13.092;2023-02-03T00:17:40;101700.91;;;10.15;50.83
27304;BME280;14791;52.392;13.092;2023-02-03T00:20:09;101694.58;;;10.07;50.93
27304;BME280;14791;52.392;13.092;2023-02-03T00:22:38;101693.64;;;9.98;51.03
27304;BME280;14791;52.392;13.092;2023-02-03T00:25:08;101681.17;;;9.88;51.15
27304;BME280;14791;52.392;13.092;2023-02-03T00:27:36;101676.65;;;9.80;51.30
27304;BME280;14791;52.392;13.092;2023-02-03T00:30:07;101665.04;;;9.71;51.41
27304;BME280;14791;52.392;13.092;2023-02-03T00:32:36;101648.09;;;9.62;51.63
27304;BME280;14791;52.392;13.092;2023-02-03T00:35:05;101644.48;;;9.52;51.81
27304;BME280;14791;52.392;13.092;2023-02-03T00:37:36;101644.77;;;9.46;51.97
27304;BME280;14791;52.392;13.092;2023-02-03T00:40:06;101645.95;;;9.39;52.22
27304;BME280;14791;52.392;13.092;2023-02-03T00:42:35;101641.72;;;9.33;52.35
27304;BME280;14791;52.392;13.092;2023-02-03T00:45:06;101629.53;;;9.28;52.46
27304;BME280;14791;52.392;13.092;2023-02-03T00:47:35;101626.14;;;9.24;52.69
27304;BME280;14791;52.392;13.092;2023-02-03T00:50:05;101601.39;;;9.21;52.80
27304;BME280;14791;52.392;13.092;2023-02-03T00:52:35;101612.20;;;9.18;52.87
27304;BME280;14791;52.392;13.092;2023-02-03T00:55:04;101614.97;;;9.14;52.93
27304;BME280;14791;52.392;13.092;2023-02-03T00:57:33;101606.58;;;9.13;52.99
27304;BME280;14791;52.392;13.092;2023-02-03T01:00:03;101602.30;;;9.09;52.92
27304;BME280;14791;52.392;13.092;2023-02-03T01:02:32;101603.77;;;9.06;52.91
27304;BME280;14791;52.392;13.092;2023-02-03T01:05:01;101592.02;;;9.00;53.00
27304;BME280;14791;52.392;13.092;2023-02-03T01:07:31;101582.97;;;8.94;53.14
27304;BME280;14791;52.392;13.092;2023-02-03T01:10:00;101582.67;;;8.90;53.31
27304;BME280;14791;52.392;13.092;2023-02-03T01:12:30;101576.16;;;8.87;53.35
27304;BME280;14791;52.392;13.092;2023-02-03T01:14:59;101571.06;;;8.81;53.46
27304;BME280;14791;52.392;13.092;2023-02-03T01:17:28;101566.81;;;8.77;53.49
27304;BME280;14791;52.392;13.092;2023-02-03T01:19:57;101564.34;;;8.72;53.65
27304;BME280;14791;52.392;13.092;2023-02-03T01:22:30;101558.25;;;8.68;53.81
27304;BME280;14791;52.392;13.092;2023-02-03T01:24:59;101560.99;;;8.67;53.75
27304;BME280;14791;52.392;13.092;2023-02-03T01:27:28;101553.58;;;8.63;53.83
27304;BME280;14791;52.392;13.092;2023-02-03T01:29:57;101559.04;;;8.60;53.76
27304;BME280;14791;52.392;13.092;2023-02-03T01:32:26;101553.55;;;8.53;53.96
27304;BME280;14791;52.392;13.092;2023-02-03T01:34:55;101547.94;;;8.49;54.06
27304;BME280;14791;52.392;13.092;2023-02-03T01:37:24;101538.75;;;8.46;54.14
27304;BME280;14791;52.392;13.092;2023-02-03T01:39:54;101520.77;;;8.41;54.17
27304;BME280;14791;52.392;13.092;2023-02-03T01:42:24;101522.17;;;8.38;54.33
27304;BME280;14791;52.392;13.092;2023-02-03T01:44:53;101512.59;;;8.34;54.37
27304;BME280;14791;52.392;13.092;2023-02-03T01:47:38;101509.12;;;8.31;54.45
27304;BME280;14791;52.392;13.092;2023-02-03T01:50:09;101500.33;;;8.29;54.49
27304;BME280;14791;52.392;13.092;2023-02-03T01:52:40;101491.71;;;8.23;54.62
27304;BME280;14791;52.392;13.092;2023-02-03T01:55:12;101471.45;;;8.19;54.63
27304;BME280;14791;52.392;13.092;2023-02-03T01:58:05;101475.66;;;8.14;54.87
27304;BME280;14791;52.392;13.092;2023-02-03T02:00:29;101467.78;;;8.11;54.99
27304;BME280;14791;52.392;13.092;2023-02-03T02:02:59;101464.91;;;8.05;55.10
27304;BME280;14791;52.392;13.092;2023-02-03T02:05:32;101457.40;;;8.05;55.18
27304;BME280;14791;52.392;13.092;2023-02-03T02:08:03;101455.73;;;8.02;54.99
27304;BME280;14791;52.392;13.092;2023-02-03T02:10:33;101447.45;;;7.98;55.07
27304;BME280;14791;52.392;13.092;2023-02-03T02:13:03;101437.80;;;7.96;55.21
27304;BME280;14791;52.392;13.092;2023-02-03T02:15:43;101426.34;;;7.94;55.38
27304;BME280;14791;52.392;13.092;2023-02-03T02:18:23;101413.99;;;7.93;55.48
27304;BME280;14791;52.392;13.092;2023-02-03T02:24:40;101392.81;;;7.89;55.74
27304;BME280;14791;52.392;13.092;2023-02-03T02:26:47;101372.52;;;7.87;56.00
27304;BME280;14791;52.392;13.092;2023-02-03T02:29:30;101372.13;;;7.86;56.19
27304;BME280;14791;52.392;13.092;2023-02-03T02:34:50;101355.65;;;7.88;56.42
27304;BME280;14791;52.392;13.092;2023-02-03T02:40:45;101332.86;;;7.93;56.39
27304;BME280;14791;52.392;13.092;2023-02-03T02:43:28;101323.93;;;7.94;56.44
27304;BME280;14791;52.392;13.092;2023-02-03T02:46:10;101319.13;;;7.92;56.58
27304;BME280;14791;52.392;13.092;2023-02-03T02:48:44;101311.44;;;7.96;56.51
27304;BME280;14791;52.392;13.092;2023-02-03T02:51:14;101305.64;;;7.96;56.54
27304;BME280;14791;52.392;13.092;2023-02-03T02:53:50;101292.68;;;7.99;56.44
27304;BME280;14791;52.392;13.092;2023-02-03T02:56:20;101306.27;;;8.03;56.38
27304;BME280;14791;52.392;13.092;2023-02-03T02:58:51;101295.95;;;8.05;56.36
27304;BME280;14791;52.392;13.092;2023-02-03T03:01:21;101287.92;;;8.07;56.40
27304;BME280;14791;52.392;13.092;2023-02-03T03:03:50;101283.79;;;8.10;56.44
27304;BME280;14791;52.392;13.092;2023-02-03T03:06:22;101279.19;;;8.14;56.53
27304;BME280;14791;52.392;13.092;2023-02-03T03:08:59;101276.80;;;8.18;56.57
27304;BME280;14791;52.392;13.092;2023-02-03T03:11:53;101269.56;;;8.21;56.42
27304;BME280;14791;52.392;13.092;2023-02-03T03:14:19;101263.68;;;8.23;56.16
27304;BME280;14791;52.392;13.092;2023-02-03T03:16:58;101259.84;;;8.20;56.20
27304;BME280;14791;52.392;13.092;2023-02-03T03:19:23;101253.18;;;8.20;56.41
27304;BME280;14791;52.392;13.092;2023-02-03T03:21:56;101249.19;;;8.20;56.50
27304;BME280;14791;52.392;13.092;2023-02-03T03:24:28;101234.55;;;8.20;56.49
27304;BME280;14791;52.392;13.092;2023-02-03T03:27:02;101239.88;;;8.20;56.59
27304;BME280;14791;52.392;13.092;2023-02-03T03:29:49;101228.31;;;8.21;56.65
27304;BME280;14791;52.392;13.092;2023-02-03T03:32:18;101219.00;;;8.21;56.74
27304;BME280;14791;52.392;13.092;2023-02-03T03:34:47;101217.20;;;8.22;56.86
27304;BME280;14791;52.392;13.092;2023-02-03T03:37:27;101205.55;;;8.24;56.99
27304;BME280;14791;52.392;13.092;2023-02-03T03:40:06;101198.22;;;8.29;57.11
27304;BME280;14791;52.392;13.092;2023-02-03T03:50:27;101189.33;;;8.41;57.12
27304;BME280;14791;52.392;13.092;2023-02-03T03:52:59;101183.86;;;8.44;57.24
27304;BME280;14791;52.392;13.092;2023-02-03T03:55:31;101188.50;;;8.49;57.33
27304;BME280;14791;52.392;13.092;2023-02-03T03:58:11;101183.91;;;8.53;57.28
27304;BME280;14791;52.392;13.092;2023-02-03T04:00:37;101185.95;;;8.56;57.23
27304;BME280;14791;52.392;13.092;2023-02-03T04:03:15;101183.23;;;8.58;57.23
27304;BME280;14791;52.392;13.092;2023-02-03T04:05:45;101191.92;;;8.61;57.41
27304;BME280;14791;52.392;13.092;2023-02-03T04:08:14;101187.39;;;8.63;57.53
27304;BME280;14791;52.392;13.092;2023-02-03T04:10:43;101185.38;;;8.68;57.69
27304;BME280;14791;52.392;13.092;2023-02-03T04:13:12;101168.71;;;8.73;57.76
27304;BME280;14791;52.392;13.092;2023-02-03T04:15:42;101171.64;;;8.78;57.82
27304;BME280;14791;52.392;13.092;2023-02-03T04:18:15;101165.14;;;8.83;57.90
27304;BME280;14791;52.392;13.092;2023-02-03T04:20:44;101155.16;;;8.88;57.98
27304;BME280;14791;52.392;13.092;2023-02-03T04:23:13;101153.26;;;8.90;58.16
27304;BME280;14791;52.392;13.092;2023-02-03T04:25:42;101157.45;;;8.96;58.20
27304;BME280;14791;52.392;13.092;2023-02-03T04:28:11;101146.47;;;9.02;58.25
27304;BME280;14791;52.392;13.092;2023-02-03T04:30:40;101139.11;;;9.07;58.28
27304;BME280;14791;52.392;13.092;2023-02-03T04:33:09;101140.16;;;9.13;58.35
27304;BME280;14791;52.392;13.092;2023-02-03T04:35:37;101130.12;;;9.19;58.46
27304;BME280;14791;52.392;13.092;2023-02-03T04:38:06;101113.44;;;9.24;58.48
27304;BME280;14791;52.392;13.092;2023-02-03T04:40:35;101116.28;;;9.29;58.50
27304;BME280;14791;52.392;13.092;2023-02-03T04:43:07;101101.77;;;9.35;58.60
27304;BME280;14791;52.392;13.092;2023-02-03T04:45:36;101102.81;;;9.41;58.64
27304;BME280;14791;52.392;13.092;2023-02-03T04:48:05;101094.48;;;9.47;58.81
27304;BME280;14791;52.392;13.092;2023-02-03T04:50:34;101086.17;;;9.53;58.81
27304;BME280;14791;52.392;13.092;2023-02-03T04:53:03;101063.58;;;9.61;59.02
27304;BME280;14791;52.392;13.092;2023-02-03T04:55:32;101067.64;;;9.68;58.96
27304;BME280;14791;52.392;13.092;2023-02-03T04:58:01;101053.97;;;9.74;59.14
27304;BME280;14791;52.392;13.092;2023-02-03T05:00:30;101049.11;;;9.82;59.16
27304;BME280;14791;52.392;13.092;2023-02-03T05:02:59;101048.20;;;9.90;59.20
27304;BME280;14791;52.392;13.092;2023-02-03T05:05:28;101047.41;;;9.97;59.27
27304;BME280;14791;52.392;13.092;2023-02-03T05:07:57;101041.17;;;10.05;59.26
27304;BME280;14791;52.392;13.092;2023-02-03T05:10:25;101036.77;;;10.13;59.36
27304;BME280;14791;52.392;13.092;2023-02-03T05:12:54;101048.00;;;10.27;59.42
27304;BME280;14791;52.392;13.092;2023-02-03T05:15:23;101048.00;;;10.27;59.42
27304;BME280;14791;52.392;13.092;2023-02-03T05:17:55;101046.30;;;10.34;59.31
27304;BME280;14791;52.392;13.092;2023-02-03T05:20:24;101042.78;;;10.41;59.35
27304;BME280;14791;52.392;13.092;2023-02-03T05:22:54;101036.70;;;10.46;59.32
27304;BME280;14791;52.392;13.092;2023-02-03T05:25:23;101028.84;;;10.52;59.34
27304;BME280;14791;52.392;13.092;2023-02-03T05:27:52;101030.77;;;10.57;59.34
27304;BME280;14791;52.392;13.092;2023-02-03T05:30:21;101016.67;;;10.62;59.38
27304;BME280;14791;52.392;13.092;2023-02-03T05:32:50;101010.03;;;10.69;59.36
27304;BME280;14791;52.392;13.092;2023-02-03T05:35:19;100998.89;;;10.77;59.37
27304;BME280;14791;52.392;13.092;2023-02-03T05:37:48;100998.89;;;10.77;59.37
27304;BME280;14791;52.392;13.092;2023-02-03T05:40:17;101012.20;;;10.85;59.33
27304;BME280;14791;52.392;13.092;2023-02-03T05:43:04;100999.05;;;10.90;59.52
27304;BME280;14791;52.392;13.092;2023-02-03T05:45:34;100999.05;;;10.90;59.52
27304;BME280;14791;52.392;13.092;2023-02-03T05:48:03;101007.47;;;10.98;59.34
27304;BME280;14791;52.392;13.092;2023-02-03T05:50:34;101002.34;;;11.02;59.35
27304;BME280;14791;52.392;13.092;2023-02-03T05:53:09;100998.98;;;11.05;59.33
27304;BME280;14791;52.392;13.092;2023-02-03T05:55:38;100996.45;;;11.11;59.33
27304;BME280;14791;52.392;13.092;2023-02-03T05:58:08;100989.17;;;11.13;59.28
27304;BME280;14791;52.392;13.092;2023-02-03T06:00:36;100979.65;;;11.16;59.26
27304;BME280;14791;52.392;13.092;2023-02-03T06:03:06;100963.62;;;11.23;59.53
27304;BME280;14791;52.392;13.092;2023-02-03T06:05:35;100963.62;;;11.23;59.53
27304;BME280;14791;52.392;13.092;2023-02-03T06:08:08;100959.50;;;11.25;59.23
27304;BME280;14791;52.392;13.092;2023-02-03T06:10:37;100952.94;;;11.31;59.27
27304;BME280;14791;52.392;13.092;2023-02-03T06:13:11;100953.11;;;11.35;59.29
27304;BME280;14791;52.392;13.092;2023-02-03T06:15:41;100949.30;;;11.39;59.26
27304;BME280;14791;52.392;13.092;2023-02-03T06:18:10;100921.70;;;11.38;59.27
27304;BME280;14791;52.392;13.092;2023-02-03T06:20:39;100929.23;;;11.46;59.27
27304;BME280;14791;52.392;13.092;2023-02-03T06:23:08;100930.78;;;11.50;59.22
27304;BME280;14791;52.392;13.092;2023-02-03T06:25:37;100930.49;;;11.55;59.20
27304;BME280;14791;52.392;13.092;2023-02-03T06:28:06;100934.79;;;11.57;59.16
27304;BME280;14791;52.392;13.092;2023-02-03T06:30:35;100918.05;;;11.61;59.13
27304;BME280;14791;52.392;13.092;2023-02-03T06:33:04;100911.27;;;11.62;59.14
27304;BME280;14791;52.392;13.092;2023-02-03T06:35:34;100925.91;;;11.64;59.17
27304;BME280;14791;52.392;13.092;2023-02-03T06:38:03;100937.83;;;11.65;59.17
27304;BME280;14791;52.392;13.092;2023-02-03T06:40:32;100929.72;;;11.67;59.20
27304;BME280;14791;52.392;13.092;2023-02-03T06:43:00;100949.70;;;11.68;59.22
27304;BME280;14791;52.392;13.092;2023-02-03T06:45:30;100925.02;;;11.70;59.21
27304;BME280;14791;52.392;13.092;2023-02-03T06:47:59;100916.05;;;11.71;59.26
27304;BME280;14791;52.392;13.092;2023-02-03T06:50:28;100916.41;;;11.73;59.33
27304;BME280;14791;52.392;13.092;2023-02-03T06:52:56;100917.19;;;11.75;59.35
27304;BME280;14791;52.392;13.092;2023-02-03T06:55:25;100901.53;;;11.76;59.43
27304;BME280;14791;52.392;13.092;2023-02-03T06:57:54;100898.37;;;11.76;59.35
27304;BME280;14791;52.392;13.092;2023-02-03T07:00:24;100911.26;;;11.77;59.38
27304;BME280;14791;52.392;13.092;2023-02-03T07:02:55;100902.75;;;11.77;59.43
27304;BME280;14791;52.392;13.092;2023-02-03T07:05:25;100907.16;;;11.78;59.46
27304;BME280;14791;52.392;13.092;2023-02-03T07:07:54;100905.34;;;11.79;59.45
27304;BME280;14791;52.392;13.092;2023-02-03T07:10:23;100888.31;;;11.80;59.44
27304;BME280;14791;52.392;13.092;2023-02-03T07:12:52;100882.11;;;11.79;59.47
27304;BME280;14791;52.392;13.092;2023-02-03T07:15:21;100890.41;;;11.82;59.47
27304;BME280;14791;52.392;13.092;2023-02-03T07:17:50;100880.55;;;11.82;59.55
27304;BME280;14791;52.392;13.092;2023-02-03T07:20:22;100891.38;;;11.81;59.54
27304;BME280;14791;52.392;13.092;2023-02-03T07:22:56;100875.69;;;11.82;59.62
27304;BME280;14791;52.392;13.092;2023-02-03T07:25:25;100876.66;;;11.81;59.70
27304;BME280;14791;52.392;13.092;2023-02-03T07:27:54;100869.97;;;11.81;59.69
27304;BME280;14791;52.392;13.092;2023-02-03T07:30:23;100861.55;;;11.80;59.76
27304;BME280;14791;52.392;13.092;2023-02-03T07:32:52;100845.41;;;11.81;59.75
27304;BME280;14791;52.392;13.092;2023-02-03T07:35:22;100856.47;;;11.82;59.71
27304;BME280;14791;52.392;13.092;2023-02-03T07:37:52;100838.22;;;11.82;59.76
27304;BME280;14791;52.392;13.092;2023-02-03T07:40:21;100835.64;;;11.80;59.87
27304;BME280;14791;52.392;13.092;2023-02-03T07:42:50;100841.39;;;11.81;59.92
27304;BME280;14791;52.392;13.092;2023-02-03T07:45:19;100827.52;;;11.82;59.95
27304;BME280;14791;52.392;13.092;2023-02-03T07:47:50;100827.61;;;11.80;60.00
27304;BME280;14791;52.392;13.092;2023-02-03T07:50:19;100823.99;;;11.81;60.00
27304;BME280;14791;52.392;13.092;2023-02-03T07:52:49;100823.99;;;11.81;59.98
27304;BME280;14791;52.392;13.092;2023-02-03T07:55:19;100810.21;;;11.80;60.05
27304;BME280;14791;52.392;13.092;2023-02-03T07:57:48;100815.69;;;11.79;60.13
27304;BME280;14791;52.392;13.092;2023-02-03T08:00:17;100800.00;;;11.80;60.20
27304;BME280;14791;52.392;13.092;2023-02-03T08:02:46;100793.30;;;11.80;60.26
27304;BME280;14791;52.392;13.092;2023-02-03T08:05:16;100785.67;;;11.81;60.27
27304;BME280;14791;52.392;13.092;2023-02-03T08:07:45;100791.39;;;11.82;60.26
27304;BME280;14791;52.392;13.092;2023-02-03T08:10:15;100783.45;;;11.80;60.31
27304;BME280;14791;52.392;13.092;2023-02-03T08:12:44;100774.97;;;11.81;60.35
27304;BME280;14791;52.392;13.092;2023-02-03T08:15:14;100765.61;;;11.81;60.36
27304;BME280;14791;52.392;13.092;2023-02-03T08:17:44;100765.61;;;11.81;60.38
27304;BME280;14791;52.392;13.092;2023-02-03T08:20:14;100761.59;;;11.81;60.39
27304;BME280;14791;52.392;13.092;2023-02-03T08:22:43;100765.61;;;11.81;60.42
27304;BME280;14791;52.392;13.092;2023-02-03T08:25:12;100756.23;;;11.81;60.45
27304;BME280;14791;52.392;13.092;2023-02-03T08:27:41;100752.22;;;11.81;60.57
27304;BME280;14791;52.392;13.092;2023-02-03T08:30:12;100747.81;;;11.80;60.69
27304;BME280;14791;52.392;13.092;2023-02-03T08:32:41;100740.17;;;11.81;60.76
27304;BME280;14791;52.392;13.092;2023-02-03T08:35:10;100744.95;;;11.83;60.78
27304;BME280;14791;52.392;13.092;2023-02-03T08:37:39;100745.41;;;11.82;60.79
27304;BME280;14791;52.392;13.092;2023-02-03T08:40:09;100746.66;;;11.84;60.77
27304;BME280;14791;52.392;13.092;2023-02-03T08:42:38;100743.62;;;11.83;60.81
27304;BME280;14791;52.392;13.092;2023-02-03T08:45:08;100734.25;;;11.83;60.83
27304;BME280;14791;52.392;13.092;2023-02-03T08:47:37;100724.88;;;11.83;60.85
27304;BME280;14791;52.392;13.092;2023-02-03T08:50:07;100719.13;;;11.82;60.91
27304;BME280;14791;52.392;13.092;2023-02-03T08:52:37;100720.87;;;11.83;60.95
27304;BME280;14791;52.392;13.092;2023-02-03T08:55:06;100711.02;;;11.83;60.99
27304;BME280;14791;52.392;13.092;2023-02-03T08:57:35;100721.59;;;11.85;60.97
27304;BME280;14791;52.392;13.092;2023-02-03T09:00:05;100710.89;;;11.85;61.02
27304;BME280;14791;52.392;13.092;2023-02-03T09:02:35;100704.20;;;11.85;61.04
27304;BME280;14791;52.392;13.092;2023-02-03T09:05:04;100696.56;;;11.86;61.04
27304;BME280;14791;52.392;13.092;2023-02-03T09:07:34;100687.20;;;11.86;61.04
27304;BME280;14791;52.392;13.092;2023-02-03T09:10:03;100681.45;;;11.85;61.06
27304;BME280;14791;52.392;13.092;2023-02-03T09:12:32;100684.62;;;11.84;61.13
27304;BME280;14791;52.392;13.092;2023-02-03T09:15:01;100694.83;;;11.85;61.21
27304;BME280;14791;52.392;13.092;2023-02-03T09:17:30;100693.49;;;11.85;61.27
27304;BME280;14791;52.392;13.092;2023-02-03T09:19:58;100694.73;;;11.86;61.32
27304;BME280;14791;52.392;13.092;2023-02-03T09:22:27;100681.66;;;11.89;61.28
27304;BME280;14791;52.392;13.092;2023-02-03T09:24:56;100669.04;;;11.91;61.27
27304;BME280;14791;52.392;13.092;2023-02-03T09:27:25;100682.91;;;11.90;61.24
27304;BME280;14791;52.392;13.092;2023-02-03T09:29:54;100676.58;;;11.91;61.25
27304;BME280;14791;52.392;13.092;2023-02-03T09:32:25;100673.32;;;11.94;61.28
27304;BME280;14791;52.392;13.092;2023-02-03T09:34:54;100646.65;;;11.92;61.29
27304;BME280;14791;52.392;13.092;2023-02-03T09:37:22;100652.40;;;11.93;61.33
27304;BME280;14791;52.392;13.092;2023-02-03T09:39:51;100647.41;;;11.94;61.41
27304;BME280;14791;52.392;13.092;2023-02-03T09:45:03;100652.08;;;11.98;61.37
27304;BME280;14791;52.392;13.092;2023-02-03T09:47:33;100644.54;;;11.97;61.41
27304;BME280;14791;52.392;13.092;2023-02-03T09:50:04;100627.87;;;11.99;61.46
27304;BME280;14791;52.392;13.092;2023-02-03T09:52:38;100631.52;;;11.98;61.52
27304;BME280;14791;52.392;13.092;2023-02-03T09:55:37;100633.97;;;12.01;61.60
27304;BME280;14791;52.392;13.092;2023-02-03T09:58:14;100627.67;;;12.02;61.62
27304;BME280;14791;52.392;13.092;2023-02-03T10:01:01;100628.84;;;11.98;61.73
27304;BME280;14791;52.392;13.092;2023-02-03T10:09:55;100612.03;;;11.96;61.94
27304;BME280;14791;52.392;13.092;2023-02-03T10:12:14;100621.79;;;11.97;62.00
27304;BME280;14791;52.392;13.092;2023-02-03T10:15:01;100608.77;;;11.98;62.09
27304;BME280;14791;52.392;13.092;2023-02-03T10:17:37;100585.66;;;11.97;62.11
27304;BME280;14791;52.392;13.092;2023-02-03T10:20:13;100573.88;;;12.00;62.11
27304;BME280;14791;52.392;13.092;2023-02-03T10:22:49;100551.75;;;12.03;62.12
27304;BME280;14791;52.392;13.092;2023-02-03T10:25:16;100527.06;;;12.05;62.13
27304;BME280;14791;52.392;13.092;2023-02-03T10:27:48;100531.70;;;12.09;62.17
27304;BME280;14791;52.392;13.092;2023-02-03T10:30:25;100519.95;;;12.11;62.18
27304;BME280;14791;52.392;13.092;2023-02-03T10:33:00;100526.77;;;12.16;62.14
27304;BME280;14791;52.392;13.092;2023-02-03T10:35:33;100528.02;;;12.17;62.15
27304;BME280;14791;52.392;13.092;2023-02-03T10:38:02;100540.69;;;12.21;62.14
27304;BME280;14791;52.392;13.092;2023-02-03T10:40:32;100544.86;;;12.25;62.15
27304;BME280;14791;52.392;13.092;2023-02-03T10:43:01;100531.25;;;12.28;62.13
27304;BME280;14791;52.392;13.092;2023-02-03T10:45:48;100557.83;;;12.31;62.09
27304;BME280;14791;52.392;13.092;2023-02-03T10:48:17;100554.17;;;12.32;62.07
27304;BME280;14791;52.392;13.092;2023-02-03T10:50:48;100572.23;;;12.36;62.04
27304;BME280;14791;52.392;13.092;2023-02-03T10:53:21;100580.88;;;12.39;61.93
27304;BME280;14791;52.392;13.092;2023-02-03T10:56:07;100600.75;;;12.42;61.89
27304;BME280;14791;52.392;13.092;2023-02-03T10:58:38;100623.77;;;12.45;61.83
27304;BME280;14791;52.392;13.092;2023-02-03T11:01:13;100616.63;;;12.45;61.77
27304;BME280;14791;52.392;13.092;2023-02-03T11:03:44;100647.78;;;12.46;61.65
27304;BME280;14791;52.392;13.092;2023-02-03T11:06:15;100630.73;;;12.47;61.26
27304;BME280;14791;52.392;13.092;2023-02-03T11:08:47;100625.61;;;12.44;60.93
27304;BME280;14791;52.392;13.092;2023-02-03T11:11:25;100641.91;;;12.41;60.51
27304;BME280;14791;52.392;13.092;2023-02-03T11:16:40;100637.42;;;12.29;59.84
27304;BME280;14791;52.392;13.092;2023-02-03T11:19:19;100640.52;;;12.23;59.81
27304;BME280;14791;52.392;13.092;2023-02-03T11:21:51;100640.47;;;12.17;59.69
27304;BME280;14791;52.392;13.092;2023-02-03T11:24:28;100641.77;;;12.11;59.58
27304;BME280;14791;52.392;13.092;2023-02-03T11:27:03;100657.44;;;12.10;59.42
27304;BME280;14791;52.392;13.092;2023-02-03T11:29:41;100634.50;;;12.06;59.38
27304;BME280;14791;52.392;13.092;2023-02-03T11:32:19;100653.47;;;12.03;59.30
27304;BME280;14791;52.392;13.092;2023-02-03T11:34:57;100652.52;;;12.04;59.12
27304;BME280;14791;52.392;13.092;2023-02-03T11:37:44;100640.30;;;12.00;59.04
27304;BME280;14791;52.392;13.092;2023-02-03T11:42:43;100639.45;;;12.00;58.95
27304;BME280;14791;52.392;13.092;2023-02-03T11:48:12;100652.52;;;12.04;58.73
27304;BME280;14791;52.392;13.092;2023-02-03T11:50:46;100653.25;;;12.06;58.58
27304;BME280;14791;52.392;13.092;2023-02-03T11:56:09;100646.78;;;12.03;58.28
27304;BME280;14791;52.392;13.092;2023-02-03T12:23:19;100648.94;;;12.24;57.29
27304;BME280;14791;52.392;13.092;2023-02-03T12:26:06;100657.23;;;12.26;57.27
27304;BME280;14791;52.392;13.092;2023-02-03T12:28:41;100640.95;;;12.29;57.16
27304;BME280;14791;52.392;13.092;2023-02-03T12:31:13;100620.14;;;12.33;57.10
27304;BME280;14791;52.392;13.092;2023-02-03T12:33:43;100623.74;;;12.39;56.78
27304;BME280;14791;52.392;13.092;2023-02-03T12:36:14;100624.66;;;12.45;56.48
27304;BME280;14791;52.392;13.092;2023-02-03T12:38:49;100634.06;;;12.51;56.35
27304;BME280;14791;52.392;13.092;2023-02-03T12:41:25;100656.42;;;12.57;56.30
27304;BME280;14791;52.392;13.092;2023-02-03T12:44:03;100632.83;;;12.62;56.37
27304;BME280;14791;52.392;13.092;2023-02-03T12:46:42;100646.02;;;12.71;56.01
27304;BME280;14791;52.392;13.092;2023-02-03T12:52:23;100650.89;;;12.84;55.48
27304;BME280;14791;52.392;13.092;2023-02-03T13:00:57;100658.88;;;12.97;54.86
27304;BME280;14791;52.392;13.092;2023-02-03T13:03:42;100662.57;;;13.02;54.45
27304;BME280;14791;52.392;13.092;2023-02-03T13:06:14;100657.98;;;13.09;54.08
27304;BME280;14791;52.392;13.092;2023-02-03T13:08:49;100671.31;;;13.16;54.17
27304;BME280;14791;52.392;13.092;2023-02-03T13:11:22;100770.37;;;13.25;53.56
27304;BME280;14791;52.392;13.092;2023-02-03T13:13:53;100804.13;;;13.22;50.65
27304;BME280;14791;52.392;13.092;2023-02-03T13:16:29;100773.28;;;12.91;49.88
27304;BME280;14791;52.392;13.092;2023-02-03T13:18:58;100792.62;;;12.50;51.37
27304;BME280;14791;52.392;13.092;2023-02-03T13:21:28;100800.03;;;12.07;52.74
27304;BME280;14791;52.392;13.092;2023-02-03T13:23:57;100807.48;;;11.67;53.70
27304;BME280;14791;52.392;13.092;2023-02-03T13:27:02;100801.10;;;11.00;55.34
27304;BME280;14791;52.392;13.092;2023-02-03T13:29:35;100809.10;;;10.71;56.20
27304;BME280;14791;52.392;13.092;2023-02-03T13:43:18;100798.25;;;10.14;57.07
27304;BME280;14791;52.392;13.092;2023-02-03T13:45:50;100794.02;;;10.03;57.39
27304;BME280;14791;52.392;13.092;2023-02-03T13:48:28;100802.20;;;9.99;57.54
27304;BME280;14791;52.392;13.092;2023-02-03T13:51:13;100791.16;;;9.98;57.48
27304;BME280;14791;52.392;13.092;2023-02-03T13:53:45;100781.12;;;9.95;57.50
27304;BME280;14791;52.392;13.092;2023-02-03T13:56:22;100775.13;;;9.91;57.56
27304;BME280;14791;52.392;13.092;2023-02-03T13:59:03;100766.64;;;9.92;57.56
27304;BME280;14791;52.392;13.092;2023-02-03T14:01:37;100769.79;;;9.91;57.72
27304;BME280;14791;52.392;13.092;2023-02-03T14:09:33;100758.37;;;9.96;57.70
27304;BME280;14791;52.392;13.092;2023-02-03T14:12:17;100748.91;;;9.98;57.64
27304;BME280;14791;52.392;13.092;2023-02-03T14:23:12;100731.91;;;10.22;58.56
27304;BME280;14791;52.392;13.092;2023-02-03T14:25:38;100730.27;;;10.35;58.49
27304;BME280;14791;52.392;13.092;2023-02-03T14:28:13;100730.09;;;10.53;58.16
27304;BME280;14791;52.392;13.092;2023-02-03T14:31:02;100728.55;;;10.70;57.76
27304;BME280;14791;52.392;13.092;2023-02-03T14:36:47;100731.61;;;11.00;57.04
27304;BME280;14791;52.392;13.092;2023-02-03T14:47:03;100755.42;;;11.32;55.68
27304;BME280;14791;52.392;13.092;2023-02-03T14:49:35;100763.15;;;11.36;55.50
27304;BME280;14791;52.392;13.092;2023-02-03T14:52:27;100746.80;;;11.41;55.18